Time;durP1;ratioP1;P1;durP2;ratioP2;P2;SDS_P1;SDS_P2;PMS_P1;PMS_P2;Temp;Humidity;BMP_temperature;BMP_pressure;BME280_temperature;BME280_humidity;BME280_pressure;Samples;Min_cycle;Max_cycle;Signal;HPM_P1;HPM_P2
2021/06/19 00:00:10;;;;;;;10.65;4.47;;;;;;;21.90;100.00;97558.88;5017450;28;20053;-84
2021/06/19 00:02:38;;;;;;;5.95;4.10;;;;;;;21.95;100.00;97544.72;5019832;28;20049;-82
2021/06/19 00:05:06;;;;;;;10.13;4.65;;;;;;;21.94;100.00;97557.69;4981566;28;20057;-83
2021/06/19 00:07:33;;;;;;;8.75;4.65;;;;;;;21.95;100.00;97551.00;4975376;28;20042;-82
2021/06/19 00:10:00;;;;;;;8.05;4.95;;;;;;;21.98;100.00;97550.25;4975098;28;20045;-82
2021/06/19 00:12:27;;;;;;;7.85;4.82;;;;;;;22.00;100.00;97558.09;4996899;28;20141;-84
2021/06/19 00:14:56;;;;;;;7.00;4.28;;;;;;;21.98;100.00;97552.19;5013779;28;20056;-83
2021/06/19 00:17:26;;;;;;;8.57;4.50;;;;;;;21.97;100.00;97545.09;4998256;28;20072;-82
2021/06/19 00:19:52;;;;;;;6.25;4.38;;;;;;;22.03;100.00;97549.84;5028142;28;20109;-82
2021/06/19 00:22:21;;;;;;;7.20;4.38;;;;;;;22.02;100.00;97553.78;5002401;28;20053;-82
2021/06/19 00:24:51;;;;;;;11.38;4.90;;;;;;;22.06;100.00;97551.03;4992953;28;20049;-84
2021/06/19 00:27:18;;;;;;;12.60;4.35;;;;;;;22.02;100.00;97552.97;4986204;28;20148;-84
2021/06/19 00:29:45;;;;;;;7.03;4.95;;;;;;;22.01;100.00;97552.22;4992926;28;20069;-85
2021/06/19 00:32:14;;;;;;;9.38;5.00;;;;;;;21.92;100.00;97551.78;4993286;28;20061;-84
2021/06/19 00:34:41;;;;;;;10.32;5.30;;;;;;;21.90;100.00;97562.44;4993463;28;20069;-82
2021/06/19 00:37:08;;;;;;;9.82;4.60;;;;;;;21.81;100.00;97548.19;4989411;28;20046;-83
2021/06/19 00:39:35;;;;;;;6.80;4.55;;;;;;;21.75;100.00;97549.75;4995072;28;20046;-84
2021/06/19 00:42:03;;;;;;;8.13;5.07;;;;;;;21.65;100.00;97547.78;4995259;28;20048;-83
2021/06/19 00:44:32;;;;;;;9.40;4.65;;;;;;;21.59;100.00;97544.59;4995086;28;20049;-82
2021/06/19 00:50:41;;;;;;;7.38;4.88;;;;;;;21.56;100.00;97550.88;4977057;28;20042;-83
2021/06/19 00:53:09;;;;;;;10.25;4.88;;;;;;;21.50;100.00;97548.88;4978640;28;20050;-83
2021/06/19 00:55:37;;;;;;;10.82;5.05;;;;;;;21.50;100.00;97551.63;4978058;28;20049;-82
2021/06/19 00:58:07;;;;;;;8.65;5.10;;;;;;;21.39;100.00;97545.31;4977319;28;20199;-82
2021/06/19 01:00:41;;;;;;;13.10;5.18;;;;;;;21.29;100.00;97533.09;4993973;28;20117;-82
2021/06/19 01:03:15;;;;;;;9.15;4.88;;;;;;;21.30;100.00;97534.66;4992255;28;20080;-83
2021/06/19 01:05:51;;;;;;;10.10;5.22;;;;;;;21.25;100.00;97536.97;4977185;28;20413;-82
2021/06/19 01:08:28;;;;;;;8.00;5.20;;;;;;;21.20;100.00;97534.59;4976965;28;20221;-83
2021/06/19 01:11:27;;;;;;;11.13;4.80;;;;;;;21.18;100.00;97547.97;4978339;28;20049;-83
2021/06/19 01:13:58;;;;;;;10.13;5.00;;;;;;;20.98;100.00;97537.22;4976172;28;20057;-84
2021/06/19 01:16:37;;;;;;;9.82;5.18;;;;;;;20.91;100.00;97541.88;4983592;28;20073;-82
2021/06/19 01:19:07;;;;;;;7.47;5.25;;;;;;;20.87;100.00;97541.88;4980596;28;20073;-83
2021/06/19 01:21:39;;;;;;;9.60;5.72;;;;;;;20.82;100.00;97546.97;4981446;28;20500;-83
2021/06/19 01:24:15;;;;;;;7.50;5.50;;;;;;;20.73;100.00;97540.97;4980072;28;20054;-83
2021/06/19 01:26:56;;;;;;;13.07;5.38;;;;;;;20.69;100.00;97535.47;4981069;28;20560;-83
2021/06/19 01:29:45;;;;;;;11.07;5.30;;;;;;;20.66;100.00;97529.94;4996846;28;20070;-86
2021/06/19 01:32:24;;;;;;;10.55;5.07;;;;;;;20.55;100.00;97529.06;5012546;28;20049;-85
2021/06/19 01:35:01;;;;;;;8.63;5.45;;;;;;;20.41;100.00;97521.53;4982417;28;20046;-84
2021/06/19 01:37:47;;;;;;;14.77;5.90;;;;;;;20.25;100.00;97513.56;4992501;28;20073;-84
2021/06/19 01:40:30;;;;;;;6.72;5.13;;;;;;;20.32;100.00;97519.09;4983931;28;20311;-84
2021/06/19 01:43:06;;;;;;;9.02;5.57;;;;;;;20.38;100.00;97538.78;4982726;28;20046;-83
2021/06/19 01:45:35;;;;;;;12.80;5.30;;;;;;;20.37;100.00;97540.75;4980119;28;20081;-83
2021/06/19 01:48:07;;;;;;;8.55;5.57;;;;;;;20.25;100.00;97534.75;4996907;28;20042;-85
2021/06/19 01:50:46;;;;;;;8.05;5.43;;;;;;;20.20;100.00;97524.06;4982038;28;20189;-81
2021/06/19 01:53:30;;;;;;;9.88;6.10;;;;;;;20.07;100.00;97520.03;4981730;28;20057;-83
2021/06/19 01:56:15;;;;;;;10.55;5.80;;;;;;;20.04;100.00;97529.81;4980937;28;20133;-83
2021/06/19 01:58:42;;;;;;;7.95;5.70;;;;;;;19.85;100.00;97522.56;4982882;28;20050;-81
2021/06/19 02:01:15;;;;;;;9.63;5.82;;;;;;;19.78;100.00;97522.50;4984307;28;20050;-83
2021/06/19 02:03:58;;;;;;;8.65;5.57;;;;;;;19.79;100.00;97528.81;4985650;28;20046;-83
2021/06/19 02:06:39;;;;;;;7.72;5.65;;;;;;;19.64;100.00;97507.84;4997076;28;20046;-84
2021/06/19 02:09:10;;;;;;;7.35;5.97;;;;;;;19.63;100.00;97520.00;4996651;28;20042;-83
2021/06/19 02:11:39;;;;;;;14.45;6.35;;;;;;;19.56;100.00;97525.41;4996328;28;20042;-83
2021/06/19 02:14:32;;;;;;;9.23;5.85;;;;;;;19.59;100.00;97538.41;4987278;28;20140;-83
2021/06/19 02:16:59;;;;;;;12.38;6.30;;;;;;;19.55;100.00;97527.38;4980513;28;20046;-83
2021/06/19 02:19:26;;;;;;;11.93;6.30;;;;;;;19.58;100.00;97540.34;4977803;28;20084;-83
2021/06/19 02:21:55;;;;;;;10.60;6.40;;;;;;;19.56;100.00;97537.19;4979683;28;20049;-83
2021/06/19 02:24:25;;;;;;;14.30;6.40;;;;;;;19.52;100.00;97525.38;4978983;28;20060;-83
2021/06/19 02:27:12;;;;;;;9.55;6.47;;;;;;;19.53;100.00;97540.69;4995379;28;20042;-83
2021/06/19 02:30:11;;;;;;;11.10;6.40;;;;;;;19.52;100.00;97544.59;4979051;28;20464;-82
2021/06/19 02:32:41;;;;;;;7.60;6.20;;;;;;;19.39;100.00;97528.75;4984620;28;20046;-85
2021/06/19 02:35:14;;;;;;;10.88;6.35;;;;;;;19.33;100.00;97519.25;4989872;28;20047;-85
2021/06/19 02:37:46;;;;;;;8.68;6.13;;;;;;;19.37;100.00;97525.56;4977592;28;20494;-84
2021/06/19 02:40:13;;;;;;;15.50;6.80;;;;;;;19.30;100.00;97540.00;4960918;28;20110;-84
2021/06/19 02:42:42;;;;;;;9.70;6.50;;;;;;;19.32;100.00;97559.63;4976761;28;20099;-85
2021/06/19 02:45:16;;;;;;;13.25;6.93;;;;;;;19.29;100.00;97552.94;4976842;28;20133;-84
2021/06/19 02:47:52;;;;;;;9.35;6.35;;;;;;;19.21;100.00;97544.97;4961433;28;20050;-83
2021/06/19 02:50:28;;;;;;;12.65;7.05;;;;;;;18.98;100.00;97536.84;4975663;28;20047;-84
2021/06/19 02:53:07;;;;;;;10.52;7.20;;;;;;;18.81;100.00;97528.38;4961348;28;20061;-83
2021/06/19 02:55:40;;;;;;;13.95;7.32;;;;;;;18.78;100.00;97548.31;4962824;28;20118;-85
2021/06/19 02:58:15;;;;;;;12.00;7.25;;;;;;;18.79;100.00;97558.13;4977028;28;20054;-84
2021/06/19 03:00:45;;;;;;;10.68;6.70;;;;;;;18.88;100.00;97573.16;4962051;28;20145;-84
2021/06/19 03:03:33;;;;;;;13.30;6.95;;;;;;;18.64;100.00;97584.53;4973924;28;20057;-84
2021/06/19 03:06:07;;;;;;;15.95;7.70;;;;;;;18.39;100.00;97569.63;4958375;28;20055;-83
2021/06/19 03:08:37;;;;;;;10.40;6.75;;;;;;;18.42;100.00;97569.69;4958149;28;20100;-82
2021/06/19 03:11:10;;;;;;;16.85;7.28;;;;;;;18.49;100.00;97572.56;4958939;28;20053;-82
2021/06/19 03:13:46;;;;;;;15.50;7.05;;;;;;;18.43;100.00;97570.47;4960191;28;20050;-82
2021/06/19 03:16:28;;;;;;;8.38;6.82;;;;;;;18.53;100.00;97575.38;4959416;28;20050;-82
2021/06/19 03:19:06;;;;;;;11.05;7.05;;;;;;;18.64;100.00;97582.59;4959924;28;20046;-82
2021/06/19 03:21:42;;;;;;;9.68;6.97;;;;;;;18.53;100.00;97565.19;4961019;28;20057;-82
2021/06/19 03:24:15;;;;;;;9.63;6.75;;;;;;;18.63;100.00;97577.50;4960543;28;20050;-81
2021/06/19 03:26:50;;;;;;;11.45;7.05;;;;;;;18.72;100.00;97577.22;4961054;28;20092;-84
2021/06/19 03:29:18;;;;;;;12.43;6.72;;;;;;;18.66;100.00;97566.56;4959574;28;20046;-82
2021/06/19 03:31:47;;;;;;;12.52;8.10;;;;;;;18.72;100.00;97566.22;4960259;28;20549;-82
2021/06/19 03:34:17;;;;;;;14.05;7.78;;;;;;;18.75;100.00;97560.03;4977588;28;20046;-83
2021/06/19 03:36:44;;;;;;;15.23;7.82;;;;;;;18.99;100.00;97587.03;4987781;28;20050;-82
2021/06/19 03:39:15;;;;;;;10.00;7.28;;;;;;;18.95;100.00;97569.72;4971112;28;20050;-84
2021/06/19 03:41:45;;;;;;;14.07;8.02;;;;;;;18.95;100.00;97578.75;4976503;28;20065;-84
2021/06/19 03:44:34;;;;;;;13.18;7.88;;;;;;;18.85;100.00;97551.94;4974171;28;20046;-82
2021/06/19 03:47:07;;;;;;;12.88;7.93;;;;;;;19.02;100.00;97575.31;4959055;28;20053;-82
2021/06/19 03:49:54;;;;;;;11.82;7.88;;;;;;;18.94;100.00;97562.66;4975838;28;20046;-82
2021/06/19 03:52:24;;;;;;;19.08;8.20;;;;;;;18.99;100.00;97554.91;4974532;28;20054;-83
2021/06/19 03:54:58;;;;;;;12.65;7.75;;;;;;;19.09;100.00;97569.91;4958387;28;20050;-82
2021/06/19 03:57:36;;;;;;;9.38;7.50;;;;;;;19.15;100.00;97568.44;4958933;28;20068;-83
2021/06/19 04:00:50;;;;;;;12.30;7.65;;;;;;;19.16;100.00;97573.53;4960643;28;20105;-82
2021/06/19 04:03:26;;;;;;;11.35;7.28;;;;;;;19.29;100.00;97590.56;4971044;28;20094;-84
2021/06/19 04:05:53;;;;;;;16.67;7.40;;;;;;;19.35;100.00;97589.09;4962209;28;20112;-82
2021/06/19 04:08:20;;;;;;;15.52;7.47;;;;;;;19.32;100.00;97572.56;4974539;28;20052;-81
2021/06/19 04:11:04;;;;;;;11.88;7.70;;;;;;;19.38;100.00;97568.38;4965990;28;20113;-84
2021/06/19 04:13:42;;;;;;;18.23;7.60;;;;;;;19.40;100.00;97563.28;4976369;28;20050;-83
2021/06/19 04:16:41;;;;;;;14.82;7.45;;;;;;;19.49;100.00;97563.78;4960764;28;20050;-84
2021/06/19 04:19:44;;;;;;;15.37;7.20;;;;;;;19.58;100.00;97567.81;4960215;28;20043;-83
2021/06/19 04:22:34;;;;;;;16.10;7.30;;;;;;;19.69;100.00;97568.72;4919511;29;20302;-82
2021/06/19 04:25:15;;;;;;;;;;;;;;;;;;;;;
2021/06/19 04:27:59;;;;;;;17.98;8.18;;;;;;;19.89;100.00;97564.63;4932334;29;20078;-82
2021/06/19 04:30:33;;;;;;;11.30;7.33;;;;;;;20.00;100.00;97563.94;4901151;29;20126;-81
2021/06/19 04:33:44;;;;;;;13.55;8.10;;;;;;;20.14;100.00;97570.34;4919377;29;20267;-83
2021/06/19 04:36:20;;;;;;;12.60;7.68;;;;;;;20.25;100.00;97578.75;4900691;29;20060;-82
2021/06/19 04:38:47;;;;;;;12.02;7.75;;;;;;;20.35;100.00;97584.34;4900084;29;20495;-83
2021/06/19 04:41:28;;;;;;;14.70;8.38;;;;;;;20.48;100.00;97595.84;4905717;29;20531;-83
2021/06/19 04:44:40;;;;;;;12.52;7.88;;;;;;;20.54;100.00;97574.28;4933575;29;20043;-86
2021/06/19 04:47:36;;;;;;;;;;;;;;;;;;;;;
2021/06/19 04:50:18;;;;;;;12.32;7.05;;;;;;;20.76;100.00;97565.78;4935489;29;20537;-84
2021/06/19 04:53:17;;;;;;;13.48;7.28;;;;;;;20.86;100.00;97572.53;4930681;28;20055;-82
2021/06/19 04:56:16;;;;;;;11.63;6.70;;;;;;;20.96;100.00;97571.78;4964016;28;20042;-84
2021/06/19 04:59:03;;;;;;;10.82;7.40;;;;;;;21.02;100.00;97562.81;4961739;28;20387;-81
2021/06/19 05:02:15;;;;;;;9.43;6.60;;;;;;;21.31;100.00;97587.75;4962789;28;20047;-82
2021/06/19 05:05:03;;;;;;;12.40;7.03;;;;;;;21.35;100.00;97569.28;4960621;28;20188;-83
2021/06/19 05:07:50;;;;;;;15.48;7.38;;;;;;;21.69;100.00;97592.66;4977523;28;20159;-81
2021/06/19 05:10:57;;;;;;;11.35;6.75;;;;;;;21.74;100.00;97567.47;4961191;28;20049;-81
2021/06/19 05:14:08;;;;;;;12.13;6.97;;;;;;;22.01;100.00;97587.25;4964538;28;20061;-82
2021/06/19 05:16:56;;;;;;;13.00;6.65;;;;;;;22.20;100.00;97578.63;4947300;28;20457;-81
2021/06/19 05:19:25;;;;;;;13.10;5.97;;;;;;;22.45;100.00;97587.72;4978260;28;20468;-84
2021/06/19 05:21:54;;;;;;;12.00;6.65;;;;;;;22.65;100.00;97599.16;4977321;28;20054;-82
2021/06/19 05:24:36;;;;;;;9.70;6.50;;;;;;;22.82;100.00;97593.63;4981113;28;20061;-83
2021/06/19 05:27:47;;;;;;;13.25;6.18;;;;;;;23.04;100.00;97610.19;4981024;28;20397;-82
2021/06/19 05:30:43;;;;;;;9.10;5.93;;;;;;;23.15;100.00;97588.84;4981454;28;20046;-83
2021/06/19 05:33:19;;;;;;;10.15;5.85;;;;;;;23.48;100.00;97604.97;4960762;28;20043;-78
2021/06/19 05:35:46;;;;;;;9.30;5.70;;;;;;;23.66;100.00;97600.16;4994986;28;20046;-78
2021/06/19 05:38:13;;;;;;;13.80;6.00;;;;;;;23.82;100.00;97591.41;4995443;28;20042;-78
2021/06/19 05:40:39;;;;;;;10.68;6.05;;;;;;;23.97;100.00;97596.47;4977653;28;20305;-78
2021/06/19 05:43:09;;;;;;;9.95;5.90;;;;;;;24.18;100.00;97595.56;4995393;28;20047;-78
2021/06/19 05:45:35;;;;;;;11.82;6.00;;;;;;;24.37;100.00;97608.88;4985594;28;20058;-78
2021/06/19 05:48:02;;;;;;;10.68;5.90;;;;;;;24.56;100.00;97599.25;5005500;28;20054;-78
2021/06/19 05:50:29;;;;;;;8.02;5.40;;;;;;;24.74;100.00;97592.38;4977768;28;20035;-78
2021/06/19 05:52:56;;;;;;;11.77;5.82;;;;;;;24.99;100.00;97599.69;4997258;28;20065;-78
2021/06/19 05:55:23;;;;;;;10.70;5.35;;;;;;;25.13;100.00;97592.03;4999749;28;20038;-77
2021/06/19 05:57:49;;;;;;;10.07;5.50;;;;;;;25.32;100.00;97596.16;5022344;28;20104;-77
2021/06/19 06:00:16;;;;;;;10.60;5.65;;;;;;;25.51;100.00;97601.13;5004243;28;20041;-77
2021/06/19 06:02:44;;;;;;;9.10;5.50;;;;;;;25.71;100.00;97599.31;5021897;28;20100;-78
2021/06/19 06:05:11;;;;;;;6.68;4.47;;;;;;;25.95;100.00;97598.22;5020497;28;20389;-77
2021/06/19 06:07:41;;;;;;;7.40;4.30;;;;;;;26.20;100.00;97602.63;5001994;28;20103;-81
2021/06/19 06:10:08;;;;;;;7.35;4.30;;;;;;;26.40;100.00;97598.00;4997337;28;20042;-83
2021/06/19 06:12:35;;;;;;;5.97;4.18;;;;;;;26.60;100.00;97609.97;4996406;28;20145;-84
2021/06/19 06:15:20;;;;;;;5.30;4.20;;;;;;;26.74;100.00;97608.97;4978924;28;20080;-84
2021/06/19 06:20:55;;;;;;;10.30;4.35;;;;;;;26.87;100.00;97601.59;4964175;28;20047;-79
2021/06/19 06:23:25;;;;;;;9.15;4.40;;;;;;;26.90;100.00;97606.31;4963241;29;20078;-80
2021/06/19 06:25:53;;;;;;;5.78;3.97;;;;;;;26.95;100.00;97605.84;4948574;29;20039;-80
2021/06/19 06:28:20;;;;;;;7.35;4.47;;;;;;;27.06;100.00;97612.78;4968842;29;20418;-80
2021/06/19 06:30:48;;;;;;;9.13;4.43;;;;;;;27.12;100.00;97613.88;4934918;29;20055;-80
2021/06/19 06:33:15;;;;;;;8.00;4.35;;;;;;;27.28;100.00;97618.72;4946837;29;20051;-78
2021/06/19 06:35:42;;;;;;;8.88;4.28;;;;;;;27.23;100.00;97614.47;4961213;29;20134;-79
2021/06/19 06:38:12;;;;;;;6.30;4.30;;;;;;;27.35;100.00;97617.84;4960087;29;20039;-78
2021/06/19 06:40:38;;;;;;;8.45;4.28;;;;;;;27.45;100.00;97622.44;4925219;29;20458;-78
2021/06/19 06:43:07;;;;;;;6.28;4.53;;;;;;;27.50;100.00;97633.84;4961316;28;20055;-77
2021/06/19 06:45:34;;;;;;;8.38;4.25;;;;;;;27.52;100.00;97634.22;4949712;28;20047;-78
2021/06/19 06:48:00;;;;;;;9.40;4.32;;;;;;;27.52;100.00;97631.44;4958641;28;20047;-78
2021/06/19 06:50:28;;;;;;;10.40;4.38;;;;;;;27.52;100.00;97637.00;4975084;29;20095;-78
2021/06/19 06:52:55;;;;;;;9.15;4.22;;;;;;;27.55;100.00;97641.69;4957110;29;20151;-78
2021/06/19 06:55:22;;;;;;;8.32;4.55;;;;;;;27.56;100.00;97648.06;4940124;29;20088;-77
2021/06/19 06:57:51;;;;;;;9.27;4.65;;;;;;;27.65;100.00;97642.69;4957757;29;20046;-77
2021/06/19 07:00:18;;;;;;;8.23;4.55;;;;;;;27.79;100.00;97637.66;4969884;29;20055;-78
2021/06/19 07:02:45;;;;;;;9.73;4.82;;;;;;;27.83;100.00;97632.78;4968763;28;20051;-78
2021/06/19 07:05:12;;;;;;;9.32;4.65;;;;;;;27.99;100.00;97642.41;4972390;28;20047;-79
2021/06/19 07:07:41;;;;;;;7.28;4.60;;;;;;;28.00;100.00;97646.78;4950089;29;20047;-77
2021/06/19 07:10:10;;;;;;;6.47;4.47;;;;;;;28.15;100.00;97648.84;4964237;29;20047;-78
2021/06/19 07:12:41;;;;;;;5.57;4.40;;;;;;;28.35;89.50;97655.16;4930623;29;20079;-78
2021/06/19 07:15:10;;;;;;;8.38;4.70;;;;;;;28.41;100.00;97653.44;4963774;29;20057;-79
2021/06/19 07:17:38;;;;;;;5.70;4.45;;;;;;;28.43;87.11;97653.00;4965751;29;20419;-77
2021/06/19 07:20:06;;;;;;;6.18;4.60;;;;;;;28.46;100.00;97656.94;4946593;29;20047;-77
2021/06/19 07:22:34;;;;;;;8.05;5.10;;;;;;;28.56;100.00;97656.69;4962720;28;20126;-78
2021/06/19 07:25:04;;;;;;;10.73;4.68;;;;;;;28.55;87.72;97655.09;4947622;29;20062;-77
2021/06/19 07:27:32;;;;;;;8.15;4.68;;;;;;;28.55;91.42;97663.47;4940786;29;20061;-77
2021/06/19 07:29:58;;;;;;;11.38;4.47;;;;;;;28.60;92.74;97662.16;4937729;29;20110;-77
2021/06/19 07:32:25;;;;;;;11.07;4.75;;;;;;;28.43;80.81;97658.56;4954861;28;20590;-77
2021/06/19 07:34:52;;;;;;;7.43;5.00;;;;;;;28.33;76.58;97651.25;4954324;29;20054;-78
2021/06/19 07:37:19;;;;;;;10.95;4.40;;;;;;;28.21;78.43;97655.47;4958702;29;20046;-78
2021/06/19 07:39:46;;;;;;;12.13;5.45;;;;;;;28.27;82.84;97648.19;4959652;29;20058;-78
2021/06/19 07:42:12;;;;;;;9.95;4.63;;;;;;;28.52;79.27;97646.84;4941707;28;20067;-77
2021/06/19 07:44:39;;;;;;;10.18;4.43;;;;;;;28.69;77.78;97640.09;4951063;29;20062;-79
2021/06/19 07:47:44;;;;;;;7.70;4.10;;;;;;;28.71;85.26;97646.00;4955944;29;20244;-82
2021/06/19 07:51:46;;;;;;;7.63;4.50;;;;;;;28.81;69.42;97656.91;4871998;29;20084;-82
2021/06/19 07:55:42;;;;;;;;;;;;;;;;;;;;;
2021/06/19 08:14:22;;;;;;;8.05;5.35;;;;;;;28.76;83.91;97662.22;4987617;28;20088;-80
2021/06/19 08:16:52;;;;;;;7.35;4.80;;;;;;;28.94;96.49;97662.56;4972206;28;20058;-80
2021/06/19 08:19:20;;;;;;;6.85;4.68;;;;;;;28.91;83.64;97663.44;4971725;28;20056;-79
2021/06/19 08:21:46;;;;;;;9.48;4.93;;;;;;;28.94;87.24;97649.41;4983607;28;20552;-78
2021/06/19 08:24:13;;;;;;;10.10;5.35;;;;;;;29.19;78.25;97636.88;4974236;28;20058;-77
2021/06/19 08:29:12;;;;;;;10.88;5.15;;;;;;;29.35;80.06;97634.06;5008207;28;20533;-82
2021/06/19 08:35:40;;;;;;;9.40;5.15;;;;;;;29.43;100.00;97635.44;4989133;28;20050;-84
2021/06/19 08:38:34;;;;;;;10.65;4.82;;;;;;;29.53;81.94;97637.16;4991138;28;20037;-82
2021/06/19 08:41:44;;;;;;;10.77;5.30;;;;;;;29.62;76.25;97640.09;4976170;28;20042;-85
2021/06/19 08:48:20;;;;;;;7.93;5.03;;;;;;;30.06;83.72;97619.72;4971886;28;20041;-84
2021/06/19 08:51:05;;;;;;;8.07;5.20;;;;;;;29.92;68.59;97634.06;5011947;28;20052;-85
2021/06/19 08:54:00;;;;;;;5.95;4.60;;;;;;;30.24;61.85;97633.94;4931186;28;20082;-82
2021/06/19 08:56:31;;;;;;;10.15;5.30;;;;;;;30.33;81.51;97632.47;4933025;29;20027;-83
2021/06/19 08:59:43;;;;;;;7.20;5.00;;;;;;;30.31;93.50;97624.53;4964088;28;20049;-85
2021/06/19 09:05:51;;;;;;;11.10;5.00;;;;;;;30.54;61.24;97641.00;5002008;28;20060;-84
2021/06/19 09:12:21;;;;;;;11.95;5.13;;;;;;;30.89;62.94;97629.91;4997601;28;20059;-83
2021/06/19 09:15:17;;;;;;;13.90;5.22;;;;;;;31.01;66.47;97641.09;4977063;28;20050;-85
2021/06/19 09:18:56;;;;;;;10.75;5.03;;;;;;;31.10;66.96;97641.19;4993013;28;20545;-86
2021/06/19 09:21:26;;;;;;;10.75;5.55;;;;;;;30.70;62.49;97631.72;4972462;28;20514;-82
2021/06/19 09:24:45;;;;;;;9.73;5.17;;;;;;;31.20;66.57;97650.47;4939900;28;20053;-85
2021/06/19 09:27:33;;;;;;;8.18;4.95;;;;;;;31.48;57.24;97652.31;4938634;28;20110;-81
2021/06/19 09:30:28;;;;;;;16.00;5.80;;;;;;;31.73;61.38;97624.22;4942378;28;20067;-84
2021/06/19 09:32:59;;;;;;;9.35;5.32;;;;;;;31.88;58.57;97628.03;4938684;29;20345;-83
2021/06/19 09:36:32;;;;;;;12.57;5.40;;;;;;;32.06;56.37;97629.44;4940490;28;20058;-84
2021/06/19 09:39:59;;;;;;;9.73;5.47;;;;;;;32.67;58.39;97665.91;4951545;28;20083;-82
2021/06/19 09:42:31;;;;;;;7.63;4.78;;;;;;;33.16;52.46;97652.69;4939291;28;20554;-83
2021/06/19 09:49:28;;;;;;;9.95;5.00;;;;;;;33.83;50.80;97629.34;4882124;29;20036;-81
2021/06/19 09:52:22;;;;;;;;;;;;;;;;;;;;;
2021/06/19 09:58:04;;;;;;;9.48;5.15;;;;;;;35.47;43.79;97641.50;4980160;28;20567;-80
2021/06/19 10:00:37;;;;;;;13.05;5.82;;;;;;;35.56;43.63;97644.31;4952012;28;20051;-79
2021/06/19 10:03:04;;;;;;;10.40;5.28;;;;;;;35.41;42.34;97649.06;4951531;29;20494;-80
2021/06/19 10:05:34;;;;;;;13.48;5.18;;;;;;;36.33;41.74;97647.03;4968134;28;20158;-80
2021/06/19 10:08:02;;;;;;;13.70;5.70;;;;;;;37.10;40.53;97636.22;4975232;28;20042;-80
2021/06/19 10:10:30;;;;;;;13.65;5.68;;;;;;;36.14;39.97;97632.34;4968234;28;20043;-79
2021/06/19 10:12:56;;;;;;;9.88;4.97;;;;;;;36.52;40.95;97642.00;4969740;28;20043;-81
2021/06/19 10:15:23;;;;;;;9.13;5.43;;;;;;;36.07;41.27;97644.00;4952549;28;20145;-80
2021/06/19 10:17:51;;;;;;;10.75;4.80;;;;;;;36.82;39.25;97649.91;4969311;28;20047;-81
2021/06/19 10:20:18;;;;;;;10.52;5.20;;;;;;;37.34;37.70;97652.97;4972924;28;20053;-80
2021/06/19 10:22:45;;;;;;;14.43;4.80;;;;;;;36.77;38.95;97650.59;4969879;28;20038;-81
2021/06/19 10:25:15;;;;;;;15.98;5.40;;;;;;;36.62;39.45;97652.69;4968664;28;20043;-80
2021/06/19 10:27:49;;;;;;;10.35;5.28;;;;;;;38.12;38.57;97649.06;4969631;28;20440;-80
2021/06/19 10:30:23;;;;;;;7.38;5.20;;;;;;;37.63;38.22;97649.25;4967507;28;20070;-81
2021/06/19 10:33:30;;;;;;;8.70;5.07;;;;;;;37.28;37.52;97657.75;4970471;28;20053;-79
2021/06/19 10:36:02;;;;;;;12.55;5.30;;;;;;;36.86;40.31;97646.88;4967846;28;20309;-78
2021/06/19 10:38:31;;;;;;;14.02;5.65;;;;;;;37.01;39.93;97652.53;4952464;28;20165;-80
2021/06/19 10:41:00;;;;;;;10.48;5.80;;;;;;;37.60;38.33;97656.69;4970209;28;20380;-78
2021/06/19 10:43:28;;;;;;;8.50;5.32;;;;;;;37.80;38.06;97648.16;4978511;28;20364;-79
2021/06/19 10:45:59;;;;;;;11.18;5.60;;;;;;;38.03;39.43;97652.81;4986247;28;20050;-80
2021/06/19 10:48:34;;;;;;;10.93;5.85;;;;;;;37.51;38.91;97651.16;4967810;28;20034;-80
2021/06/19 10:51:23;;;;;;;15.07;5.60;;;;;;;37.59;39.79;97646.63;4967736;28;20051;-79
2021/06/19 10:54:14;;;;;;;13.00;6.13;;;;;;;37.99;40.00;97654.31;4969524;28;20157;-79
2021/06/19 10:56:56;;;;;;;9.77;5.63;;;;;;;38.42;38.66;97639.06;4968388;28;20436;-79
2021/06/19 10:59:25;;;;;;;13.20;5.57;;;;;;;37.58;39.48;97635.84;4968002;28;20127;-80
2021/06/19 11:01:54;;;;;;;9.25;6.10;;;;;;;37.07;40.17;97637.19;4951711;28;20164;-78
2021/06/19 11:04:37;;;;;;;11.85;5.95;;;;;;;38.64;36.24;97627.91;4969026;28;20053;-80
2021/06/19 11:07:07;;;;;;;8.70;5.45;;;;;;;38.94;36.05;97627.63;4968445;28;20043;-80
2021/06/19 11:09:36;;;;;;;12.98;5.90;;;;;;;38.29;39.01;97623.75;4967790;28;20130;-80
2021/06/19 11:12:04;;;;;;;11.75;5.90;;;;;;;37.78;38.86;97636.59;4969894;28;20386;-80
2021/06/19 11:17:08;;;;;;;12.82;5.57;;;;;;;38.09;38.76;97621.00;4968430;28;20559;-81
2021/06/19 11:19:47;;;;;;;10.30;5.88;;;;;;;37.91;38.36;97625.72;4967387;28;20242;-80
2021/06/19 11:22:30;;;;;;;12.27;6.00;;;;;;;37.03;41.88;97616.09;4969416;28;20046;-80
2021/06/19 11:25:16;;;;;;;12.48;5.85;;;;;;;37.88;38.70;97611.78;4952085;28;20050;-79
2021/06/19 11:27:57;;;;;;;12.32;6.18;;;;;;;37.97;39.26;97614.44;4969935;28;20074;-81
2021/06/19 11:30:33;;;;;;;13.52;6.00;;;;;;;37.50;39.47;97609.28;4971940;28;20288;-80
2021/06/19 11:33:20;;;;;;;11.27;5.50;;;;;;;38.07;38.58;97600.94;4975024;28;20117;-81
2021/06/19 11:35:52;;;;;;;15.82;6.10;;;;;;;38.23;38.86;97609.53;4975594;28;20068;-78
2021/06/19 11:38:21;;;;;;;14.68;5.50;;;;;;;37.90;39.10;97607.19;4978256;28;20422;-79
2021/06/19 11:40:50;;;;;;;13.82;6.63;;;;;;;37.67;39.21;97607.41;4972127;28;20050;-80
2021/06/19 11:43:32;;;;;;;13.63;6.25;;;;;;;36.90;40.47;97599.47;4974845;28;20061;-79
2021/06/19 11:46:00;;;;;;;17.42;6.10;;;;;;;37.86;40.38;97614.34;4976215;28;20038;-79
2021/06/19 11:48:28;;;;;;;15.48;6.25;;;;;;;37.85;42.06;97607.09;4993572;28;20034;-79
2021/06/19 11:51:06;;;;;;;11.23;5.95;;;;;;;37.87;41.40;97611.00;4979540;28;20479;-80
2021/06/19 11:53:34;;;;;;;15.55;6.60;;;;;;;38.92;39.36;97605.47;4974711;28;20403;-79
2021/06/19 11:56:08;;;;;;;14.85;6.30;;;;;;;39.40;39.66;97597.00;4962596;28;20105;-82
2021/06/19 11:58:41;;;;;;;20.30;5.90;;;;;;;39.27;37.42;97598.72;4973905;28;20062;-79
2021/06/19 12:01:07;;;;;;;14.18;5.60;;;;;;;39.30;38.65;97584.34;4994966;28;20491;-80
2021/06/19 12:03:34;;;;;;;11.30;5.88;;;;;;;39.79;37.47;97586.56;5003532;28;20046;-82
2021/06/19 12:06:01;;;;;;;17.90;5.88;;;;;;;40.32;36.44;97574.25;4987154;28;20042;-79
2021/06/19 12:08:27;;;;;;;13.23;5.50;;;;;;;40.83;35.44;97580.69;4986974;28;20336;-80
2021/06/19 12:10:54;;;;;;;10.82;6.13;;;;;;;41.10;34.46;97559.19;4988586;28;20402;-83
2021/06/19 12:13:39;;;;;;;16.33;5.63;;;;;;;39.58;34.85;97567.41;4988793;28;20039;-81
2021/06/19 12:16:09;;;;;;;14.85;5.53;;;;;;;39.58;35.24;97570.25;4987918;28;20061;-82
2021/06/19 12:18:36;;;;;;;14.07;5.57;;;;;;;39.51;34.01;97563.03;4987295;28;20045;-81
2021/06/19 12:21:08;;;;;;;11.43;5.28;;;;;;;39.92;34.48;97565.44;4987004;28;20491;-82
2021/06/19 12:23:43;;;;;;;14.45;4.85;;;;;;;40.10;31.65;97557.25;4989153;28;20050;-78
2021/06/19 12:26:16;;;;;;;14.40;5.68;;;;;;;40.84;31.74;97551.75;4989003;28;20061;-81
2021/06/19 12:28:48;;;;;;;14.57;5.50;;;;;;;41.19;31.31;97556.84;4986983;28;20038;-81
2021/06/19 12:31:17;;;;;;;16.17;5.53;;;;;;;40.01;33.30;97553.88;4987929;28;20541;-82
2021/06/19 12:33:54;;;;;;;15.45;5.93;;;;;;;41.14;32.72;97549.09;4986587;28;20043;-81
2021/06/19 12:36:24;;;;;;;16.30;6.00;;;;;;;41.41;32.39;97547.44;4988046;28;20455;-81
2021/06/19 12:38:54;;;;;;;12.48;5.78;;;;;;;41.86;32.45;97553.66;4987575;28;20327;-80
2021/06/19 12:41:22;;;;;;;17.95;6.15;;;;;;;41.18;34.37;97543.13;4986305;28;20061;-81
2021/06/19 12:43:51;;;;;;;15.18;5.85;;;;;;;42.60;32.02;97548.41;4989181;28;20057;-83
2021/06/19 12:46:23;;;;;;;13.50;5.60;;;;;;;42.28;31.06;97544.53;4988724;28;20121;-80
2021/06/19 12:49:05;;;;;;;15.45;5.65;;;;;;;41.98;31.99;97544.50;4988249;28;20042;-82
2021/06/19 12:51:39;;;;;;;11.20;5.72;;;;;;;41.59;33.35;97541.91;4987479;28;20094;-82
2021/06/19 12:54:25;;;;;;;12.68;6.10;;;;;;;41.39;33.80;97545.13;4988222;28;20491;-81
2021/06/19 12:57:07;;;;;;;14.48;5.57;;;;;;;40.44;34.43;97541.75;4989083;28;20057;-83
2021/06/19 12:59:36;;;;;;;11.18;5.80;;;;;;;39.72;35.61;97538.09;4988523;28;20046;-80
2021/06/19 13:02:07;;;;;;;12.45;6.20;;;;;;;39.71;35.29;97528.81;4987509;28;20049;-80